sensor_id;sensor_type;location;lat;lon;timestamp;temperature;humidity
75387;DHT22;63966;47.914;22.266;2023-08-06T00:01:29;21.90;90.96
75387;DHT22;63966;47.914;22.266;2023-08-06T00:04:33;21.83;91.21
75387;DHT22;63966;47.914;22.266;2023-08-06T00:07:36;21.77;91.52
75387;DHT22;63966;47.914;22.266;2023-08-06T00:10:40;21.80;91.38
75387;DHT22;63966;47.914;22.266;2023-08-06T00:13:44;21.89;90.88
75387;DHT22;63966;47.914;22.266;2023-08-06T00:16:48;21.87;90.91
75387;DHT22;63966;47.914;22.266;2023-08-06T00:19:51;21.82;90.87
75387;DHT22;63966;47.914;22.266;2023-08-06T00:22:55;21.84;90.91
75387;DHT22;63966;47.914;22.266;2023-08-06T00:25:58;21.86;90.90
75387;DHT22;63966;47.914;22.266;2023-08-06T00:29:02;21.86;90.71
75387;DHT22;63966;47.914;22.266;2023-08-06T00:32:05;21.79;90.80
75387;DHT22;63966;47.914;22.266;2023-08-06T00:35:09;21.74;90.80
75387;DHT22;63966;47.914;22.266;2023-08-06T00:38:12;21.70;90.78
75387;DHT22;63966;47.914;22.266;2023-08-06T00:41:16;21.60;91.05
75387;DHT22;63966;47.914;22.266;2023-08-06T00:44:19;21.57;91.32
75387;DHT22;63966;47.914;22.266;2023-08-06T00:47:24;21.59;91.37
75387;DHT22;63966;47.914;22.266;2023-08-06T00:50:28;21.63;91.12
75387;DHT22;63966;47.914;22.266;2023-08-06T00:53:31;21.70;90.87
75387;DHT22;63966;47.914;22.266;2023-08-06T00:56:35;21.77;90.56
75387;DHT22;63966;47.914;22.266;2023-08-06T00:59:40;21.82;90.20
75387;DHT22;63966;47.914;22.266;2023-08-06T01:02:43;21.82;90.19
75387;DHT22;63966;47.914;22.266;2023-08-06T01:05:47;21.84;89.80
75387;DHT22;63966;47.914;22.266;2023-08-06T01:09:07;21.89;89.53
75387;DHT22;63966;47.914;22.266;2023-08-06T01:15:55;21.86;89.72
75387;DHT22;63966;47.914;22.266;2023-08-06T01:19:02;21.77;89.99
75387;DHT22;63966;47.914;22.266;2023-08-06T01:22:05;21.79;90.00
75387;DHT22;63966;47.914;22.266;2023-08-06T01:25:10;21.76;89.90
75387;DHT22;63966;47.914;22.266;2023-08-06T01:28:25;21.79;89.75
75387;DHT22;63966;47.914;22.266;2023-08-06T01:31:32;21.73;89.58
75387;DHT22;63966;47.914;22.266;2023-08-06T01:34:40;21.66;89.55
75387;DHT22;63966;47.914;22.266;2023-08-06T01:37:46;21.63;89.37
75387;DHT22;63966;47.914;22.266;2023-08-06T01:40:50;21.62;89.22
75387;DHT22;63966;47.914;22.266;2023-08-06T01:43:54;21.62;89.28
75387;DHT22;63966;47.914;22.266;2023-08-06T01:46:57;21.55;89.49
75387;DHT22;63966;47.914;22.266;2023-08-06T01:50:01;21.42;89.55
75387;DHT22;63966;47.914;22.266;2023-08-06T01:53:04;21.32;89.89
75387;DHT22;63966;47.914;22.266;2023-08-06T01:56:08;21.28;90.00
75387;DHT22;63966;47.914;22.266;2023-08-06T01:59:11;21.32;89.63
75387;DHT22;63966;47.914;22.266;2023-08-06T02:02:15;21.38;89.59
75387;DHT22;63966;47.914;22.266;2023-08-06T02:05:18;21.36;89.03
75387;DHT22;63966;47.914;22.266;2023-08-06T02:08:21;21.29;89.40
75387;DHT22;63966;47.914;22.266;2023-08-06T02:11:25;21.25;89.57
75387;DHT22;63966;47.914;22.266;2023-08-06T02:14:29;21.26;89.60
75387;DHT22;63966;47.914;22.266;2023-08-06T02:17:32;21.32;89.40
75387;DHT22;63966;47.914;22.266;2023-08-06T02:20:36;21.35;89.24
75387;DHT22;63966;47.914;22.266;2023-08-06T02:23:39;21.36;89.27
75387;DHT22;63966;47.914;22.266;2023-08-06T02:26:43;21.39;89.17
75387;DHT22;63966;47.914;22.266;2023-08-06T02:29:48;21.42;89.22
75387;DHT22;63966;47.914;22.266;2023-08-06T02:32:51;21.41;89.44
75387;DHT22;63966;47.914;22.266;2023-08-06T02:36:00;21.34;89.88
75387;DHT22;63966;47.914;22.266;2023-08-06T02:39:04;21.29;90.12
75387;DHT22;63966;47.914;22.266;2023-08-06T02:42:08;21.32;90.27
75387;DHT22;63966;47.914;22.266;2023-08-06T02:45:11;21.28;90.34
75387;DHT22;63966;47.914;22.266;2023-08-06T02:48:15;21.24;90.38
75387;DHT22;63966;47.914;22.266;2023-08-06T02:51:18;21.22;90.30
75387;DHT22;63966;47.914;22.266;2023-08-06T02:54:22;21.21;90.21
75387;DHT22;63966;47.914;22.266;2023-08-06T02:57:25;21.21;90.24
75387;DHT22;63966;47.914;22.266;2023-08-06T03:00:31;21.21;89.85
75387;DHT22;63966;47.914;22.266;2023-08-06T03:03:36;21.21;89.71
75387;DHT22;63966;47.914;22.266;2023-08-06T03:06:41;21.19;89.62
75387;DHT22;63966;47.914;22.266;2023-08-06T03:09:45;21.24;89.38
75387;DHT22;63966;47.914;22.266;2023-08-06T03:12:49;21.16;89.37
75387;DHT22;63966;47.914;22.266;2023-08-06T03:15:58;21.14;89.45
75387;DHT22;63966;47.914;22.266;2023-08-06T03:19:03;21.15;89.30
75387;DHT22;63966;47.914;22.266;2023-08-06T03:22:06;21.16;88.72
75387;DHT22;63966;47.914;22.266;2023-08-06T03:25:11;21.16;88.33
75387;DHT22;63966;47.914;22.266;2023-08-06T03:28:18;21.08;88.44
75387;DHT22;63966;47.914;22.266;2023-08-06T03:31:22;21.05;88.17
75387;DHT22;63966;47.914;22.266;2023-08-06T03:34:26;20.98;87.92
75387;DHT22;63966;47.914;22.266;2023-08-06T03:37:29;21.04;87.40
75387;DHT22;63966;47.914;22.266;2023-08-06T03:40:35;20.95;87.23
75387;DHT22;63966;47.914;22.266;2023-08-06T03:43:39;20.92;87.13
75387;DHT22;63966;47.914;22.266;2023-08-06T03:46:47;20.84;86.87
75387;DHT22;63966;47.914;22.266;2023-08-06T03:49:51;20.84;86.92
75387;DHT22;63966;47.914;22.266;2023-08-06T03:52:56;20.78;86.36
75387;DHT22;63966;47.914;22.266;2023-08-06T03:56:00;20.78;86.24
75387;DHT22;63966;47.914;22.266;2023-08-06T03:59:06;20.74;86.54
75387;DHT22;63966;47.914;22.266;2023-08-06T04:02:09;20.67;86.20
75387;DHT22;63966;47.914;22.266;2023-08-06T04:05:13;20.57;86.28
75387;DHT22;63966;47.914;22.266;2023-08-06T04:08:16;20.57;86.43
75387;DHT22;63966;47.914;22.266;2023-08-06T04:11:19;20.66;85.97
75387;DHT22;63966;47.914;22.266;2023-08-06T04:14:23;20.67;85.89
75387;DHT22;63966;47.914;22.266;2023-08-06T04:17:26;20.64;85.67
75387;DHT22;63966;47.914;22.266;2023-08-06T04:20:30;20.67;85.42
75387;DHT22;63966;47.914;22.266;2023-08-06T04:23:34;20.64;84.90
75387;DHT22;63966;47.914;22.266;2023-08-06T04:26:40;20.57;85.45
75387;DHT22;63966;47.914;22.266;2023-08-06T04:29:43;20.59;85.30
75387;DHT22;63966;47.914;22.266;2023-08-06T04:32:49;20.64;85.06
75387;DHT22;63966;47.914;22.266;2023-08-06T04:35:56;20.66;85.11
75387;DHT22;63966;47.914;22.266;2023-08-06T04:39:01;20.74;84.80
75387;DHT22;63966;47.914;22.266;2023-08-06T04:42:05;20.85;84.87
75387;DHT22;63966;47.914;22.266;2023-08-06T04:45:09;20.73;85.02
75387;DHT22;63966;47.914;22.266;2023-08-06T04:48:13;20.66;85.07
75387;DHT22;63966;47.914;22.266;2023-08-06T04:51:16;20.54;85.05
75387;DHT22;63966;47.914;22.266;2023-08-06T04:54:19;20.40;85.56
75387;DHT22;63966;47.914;22.266;2023-08-06T04:57:23;20.13;86.71
75387;DHT22;63966;47.914;22.266;2023-08-06T05:00:26;20.01;87.75
75387;DHT22;63966;47.914;22.266;2023-08-06T05:03:30;19.89;88.55
75387;DHT22;63966;47.914;22.266;2023-08-06T05:06:33;19.71;89.73
75387;DHT22;63966;47.914;22.266;2023-08-06T05:09:36;19.54;90.18
75387;DHT22;63966;47.914;22.266;2023-08-06T05:12:40;19.54;90.89
75387;DHT22;63966;47.914;22.266;2023-08-06T05:15:44;19.70;90.89
75387;DHT22;63966;47.914;22.266;2023-08-06T05:18:50;20.16;88.78
75387;DHT22;63966;47.914;22.266;2023-08-06T05:21:53;20.43;87.68
75387;DHT22;63966;47.914;22.266;2023-08-06T05:24:57;20.63;87.45
75387;DHT22;63966;47.914;22.266;2023-08-06T05:28:00;21.08;85.65
75387;DHT22;63966;47.914;22.266;2023-08-06T05:31:05;21.26;85.02
75387;DHT22;63966;47.914;22.266;2023-08-06T05:34:08;21.55;84.53
75387;DHT22;63966;47.914;22.266;2023-08-06T05:37:12;22.05;82.37
75387;DHT22;63966;47.914;22.266;2023-08-06T05:40:15;22.15;81.94
75387;DHT22;63966;47.914;22.266;2023-08-06T05:43:19;22.11;80.94
75387;DHT22;63966;47.914;22.266;2023-08-06T05:46:22;21.93;83.05
75387;DHT22;63966;47.914;22.266;2023-08-06T05:49:26;21.77;81.05
75387;DHT22;63966;47.914;22.266;2023-08-06T05:52:30;21.60;82.24
75387;DHT22;63966;47.914;22.266;2023-08-06T05:55:34;21.59;81.26
75387;DHT22;63966;47.914;22.266;2023-08-06T05:58:37;21.29;82.11
75387;DHT22;63966;47.914;22.266;2023-08-06T06:01:40;21.28;82.48
75387;DHT22;63966;47.914;22.266;2023-08-06T06:04:44;21.28;82.56
75387;DHT22;63966;47.914;22.266;2023-08-06T06:07:47;21.24;84.10
75387;DHT22;63966;47.914;22.266;2023-08-06T06:10:51;20.84;83.73
75387;DHT22;63966;47.914;22.266;2023-08-06T06:13:54;20.66;84.96
75387;DHT22;63966;47.914;22.266;2023-08-06T06:16:58;20.63;84.77
75387;DHT22;63966;47.914;22.266;2023-08-06T06:20:02;20.53;86.85
75387;DHT22;63966;47.914;22.266;2023-08-06T06:23:07;20.50;87.33
75387;DHT22;63966;47.914;22.266;2023-08-06T06:26:10;20.34;87.40
75387;DHT22;63966;47.914;22.266;2023-08-06T06:29:14;19.96;89.23
75387;DHT22;63966;47.914;22.266;2023-08-06T06:32:17;19.82;90.00
75387;DHT22;63966;47.914;22.266;2023-08-06T06:35:20;19.82;89.88
75387;DHT22;63966;47.914;22.266;2023-08-06T06:38:24;19.71;90.29
75387;DHT22;63966;47.914;22.266;2023-08-06T06:41:27;19.71;90.27
75387;DHT22;63966;47.914;22.266;2023-08-06T06:44:39;19.75;89.84
75387;DHT22;63966;47.914;22.266;2023-08-06T06:47:42;19.79;89.76
75387;DHT22;63966;47.914;22.266;2023-08-06T06:50:49;19.86;90.39
75387;DHT22;63966;47.914;22.266;2023-08-06T06:53:52;19.93;89.76
75387;DHT22;63966;47.914;22.266;2023-08-06T06:56:56;20.12;89.09
75387;DHT22;63966;47.914;22.266;2023-08-06T06:59:59;20.19;88.85
75387;DHT22;63966;47.914;22.266;2023-08-06T07:03:03;20.41;87.64
75387;DHT22;63966;47.914;22.266;2023-08-06T07:06:07;20.50;87.09
75387;DHT22;63966;47.914;22.266;2023-08-06T07:09:10;20.64;85.63
75387;DHT22;63966;47.914;22.266;2023-08-06T07:12:13;20.63;85.59
75387;DHT22;63966;47.914;22.266;2023-08-06T07:15:17;20.68;85.57
75387;DHT22;63966;47.914;22.266;2023-08-06T07:18:20;20.67;85.56
75387;DHT22;63966;47.914;22.266;2023-08-06T07:21:24;20.43;87.58
75387;DHT22;63966;47.914;22.266;2023-08-06T07:24:27;20.49;85.99
75387;DHT22;63966;47.914;22.266;2023-08-06T07:27:31;20.84;84.57
75387;DHT22;63966;47.914;22.266;2023-08-06T07:30:39;21.34;84.02
75387;DHT22;63966;47.914;22.266;2023-08-06T07:33:42;21.26;83.72
75387;DHT22;63966;47.914;22.266;2023-08-06T07:36:46;21.28;82.99
75387;DHT22;63966;47.914;22.266;2023-08-06T07:39:50;21.19;84.03
75387;DHT22;63966;47.914;22.266;2023-08-06T07:42:53;21.11;83.99
75387;DHT22;63966;47.914;22.266;2023-08-06T07:45:59;21.15;83.97
75387;DHT22;63966;47.914;22.266;2023-08-06T07:49:03;21.18;84.25
75387;DHT22;63966;47.914;22.266;2023-08-06T07:52:07;21.16;84.34
75387;DHT22;63966;47.914;22.266;2023-08-06T07:55:10;21.01;86.05
75387;DHT22;63966;47.914;22.266;2023-08-06T07:58:14;21.25;84.63
75387;DHT22;63966;47.914;22.266;2023-08-06T08:01:17;21.28;85.26
75387;DHT22;63966;47.914;22.266;2023-08-06T08:04:21;22.11;83.08
75387;DHT22;63966;47.914;22.266;2023-08-06T08:07:25;23.43;78.10
75387;DHT22;63966;47.914;22.266;2023-08-06T08:10:32;25.46;70.99
75387;DHT22;63966;47.914;22.266;2023-08-06T08:13:35;27.65;66.36
75387;DHT22;63966;47.914;22.266;2023-08-06T08:16:39;27.62;63.94
75387;DHT22;63966;47.914;22.266;2023-08-06T08:19:42;26.24;65.20
75387;DHT22;63966;47.914;22.266;2023-08-06T08:22:46;25.30;68.11
75387;DHT22;63966;47.914;22.266;2023-08-06T08:25:49;24.39;71.00
75387;DHT22;63966;47.914;22.266;2023-08-06T08:28:53;23.74;73.74
75387;DHT22;63966;47.914;22.266;2023-08-06T08:31:56;24.17;73.18
75387;DHT22;63966;47.914;22.266;2023-08-06T08:35:00;24.60;72.55
75387;DHT22;63966;47.914;22.266;2023-08-06T08:38:03;25.15;70.93
75387;DHT22;63966;47.914;22.266;2023-08-06T08:41:09;25.02;72.09
75387;DHT22;63966;47.914;22.266;2023-08-06T08:44:13;24.63;70.71
75387;DHT22;63966;47.914;22.266;2023-08-06T08:47:19;25.09;69.54
75387;DHT22;63966;47.914;22.266;2023-08-06T08:50:23;25.43;69.39
75387;DHT22;63966;47.914;22.266;2023-08-06T08:53:27;26.11;65.45
75387;DHT22;63966;47.914;22.266;2023-08-06T08:56:32;26.42;64.18
75387;DHT22;63966;47.914;22.266;2023-08-06T08:59:35;26.31;65.99
75387;DHT22;63966;47.914;22.266;2023-08-06T09:02:40;25.37;67.25
75387;DHT22;63966;47.914;22.266;2023-08-06T09:05:45;25.05;68.29
75387;DHT22;63966;47.914;22.266;2023-08-06T09:09:06;24.64;68.48
75387;DHT22;63966;47.914;22.266;2023-08-06T09:12:15;23.90;72.20
75387;DHT22;63966;47.914;22.266;2023-08-06T09:15:19;23.88;72.52
75387;DHT22;63966;47.914;22.266;2023-08-06T09:18:30;24.57;71.72
75387;DHT22;63966;47.914;22.266;2023-08-06T09:21:35;25.06;69.30
75387;DHT22;63966;47.914;22.266;2023-08-06T09:24:40;24.92;69.79
75387;DHT22;63966;47.914;22.266;2023-08-06T09:27:47;24.54;71.88
75387;DHT22;63966;47.914;22.266;2023-08-06T09:30:52;24.59;70.82
75387;DHT22;63966;47.914;22.266;2023-08-06T09:34:00;24.14;71.04
75387;DHT22;63966;47.914;22.266;2023-08-06T09:37:04;24.08;71.90
75387;DHT22;63966;47.914;22.266;2023-08-06T09:40:28;23.95;70.33
75387;DHT22;63966;47.914;22.266;2023-08-06T09:43:42;23.82;70.16
75387;DHT22;63966;47.914;22.266;2023-08-06T09:46:50;23.37;71.35
75387;DHT22;63966;47.914;22.266;2023-08-06T09:49:54;22.89;74.47
75387;DHT22;63966;47.914;22.266;2023-08-06T09:53:00;22.85;75.51
75387;DHT22;63966;47.914;22.266;2023-08-06T09:56:04;22.68;76.83
75387;DHT22;63966;47.914;22.266;2023-08-06T09:59:07;22.68;77.51
75387;DHT22;63966;47.914;22.266;2023-08-06T10:02:13;22.66;76.80
75387;DHT22;63966;47.914;22.266;2023-08-06T10:05:18;22.31;77.52
75387;DHT22;63966;47.914;22.266;2023-08-06T10:08:21;22.21;78.11
75387;DHT22;63966;47.914;22.266;2023-08-06T10:11:25;21.66;80.78
75387;DHT22;63966;47.914;22.266;2023-08-06T10:14:33;21.15;80.98
75387;DHT22;63966;47.914;22.266;2023-08-06T10:17:39;21.16;82.82
75387;DHT22;63966;47.914;22.266;2023-08-06T10:20:54;21.62;80.63
75387;DHT22;63966;47.914;22.266;2023-08-06T10:23:57;22.17;78.68
75387;DHT22;63966;47.914;22.266;2023-08-06T10:27:01;22.44;79.03
75387;DHT22;63966;47.914;22.266;2023-08-06T10:30:26;22.59;76.86
75387;DHT22;63966;47.914;22.266;2023-08-06T10:33:43;23.08;75.73
75387;DHT22;63966;47.914;22.266;2023-08-06T10:36:47;23.54;75.14
75387;DHT22;63966;47.914;22.266;2023-08-06T10:39:51;23.45;75.13
75387;DHT22;63966;47.914;22.266;2023-08-06T10:42:55;24.08;73.59
75387;DHT22;63966;47.914;22.266;2023-08-06T10:46:03;24.46;71.83
75387;DHT22;63966;47.914;22.266;2023-08-06T10:49:12;24.10;72.70
75387;DHT22;63966;47.914;22.266;2023-08-06T10:52:16;23.72;72.23
75387;DHT22;63966;47.914;22.266;2023-08-06T10:55:27;23.99;71.83
75387;DHT22;63966;47.914;22.266;2023-08-06T10:58:33;23.86;71.70
75387;DHT22;63966;47.914;22.266;2023-08-06T11:01:38;23.72;71.89
75387;DHT22;63966;47.914;22.266;2023-08-06T11:04:42;23.59;72.09
75387;DHT22;63966;47.914;22.266;2023-08-06T11:07:45;23.75;71.75
75387;DHT22;63966;47.914;22.266;2023-08-06T11:10:51;23.75;72.03
75387;DHT22;63966;47.914;22.266;2023-08-06T11:14:06;23.79;72.59
75387;DHT22;63966;47.914;22.266;2023-08-06T11:17:09;23.93;71.62
75387;DHT22;63966;47.914;22.266;2023-08-06T11:20:13;24.03;72.33
75387;DHT22;63966;47.914;22.266;2023-08-06T11:23:19;23.35;72.53
75387;DHT22;63966;47.914;22.266;2023-08-06T11:26:23;23.35;72.75
75387;DHT22;63966;47.914;22.266;2023-08-06T11:29:27;23.90;70.99
75387;DHT22;63966;47.914;22.266;2023-08-06T11:32:30;24.08;70.46
75387;DHT22;63966;47.914;22.266;2023-08-06T11:35:37;24.19;69.29
75387;DHT22;63966;47.914;22.266;2023-08-06T11:38:41;24.31;69.14
75387;DHT22;63966;47.914;22.266;2023-08-06T11:41:45;24.31;70.09
75387;DHT22;63966;47.914;22.266;2023-08-06T11:44:48;23.65;69.82
75387;DHT22;63966;47.914;22.266;2023-08-06T11:47:52;23.66;71.58
75387;DHT22;63966;47.914;22.266;2023-08-06T11:50:56;23.68;71.44
75387;DHT22;63966;47.914;22.266;2023-08-06T11:54:00;23.33;72.23
75387;DHT22;63966;47.914;22.266;2023-08-06T11:57:06;23.04;73.35
75387;DHT22;63966;47.914;22.266;2023-08-06T12:00:12;23.38;72.17
75387;DHT22;63966;47.914;22.266;2023-08-06T12:03:19;23.90;72.11
75387;DHT22;63966;47.914;22.266;2023-08-06T12:06:27;24.19;72.20
75387;DHT22;63966;47.914;22.266;2023-08-06T12:09:31;24.05;71.61
75387;DHT22;63966;47.914;22.266;2023-08-06T12:12:34;23.95;71.06
75387;DHT22;63966;47.914;22.266;2023-08-06T12:15:38;23.72;71.29
75387;DHT22;63966;47.914;22.266;2023-08-06T12:18:41;23.78;71.65
75387;DHT22;63966;47.914;22.266;2023-08-06T12:21:45;23.75;71.19
75387;DHT22;63966;47.914;22.266;2023-08-06T12:24:48;23.47;70.98
75387;DHT22;63966;47.914;22.266;2023-08-06T12:27:52;23.59;71.64
75387;DHT22;63966;47.914;22.266;2023-08-06T12:30:55;23.55;72.53
75387;DHT22;63966;47.914;22.266;2023-08-06T12:33:58;23.68;72.10
75387;DHT22;63966;47.914;22.266;2023-08-06T12:37:03;23.68;70.53
75387;DHT22;63966;47.914;22.266;2023-08-06T12:40:07;24.06;69.94
75387;DHT22;63966;47.914;22.266;2023-08-06T12:43:30;24.41;69.86
75387;DHT22;63966;47.914;22.266;2023-08-06T12:46:33;24.47;70.38
75387;DHT22;63966;47.914;22.266;2023-08-06T12:49:37;24.68;70.71
75387;DHT22;63966;47.914;22.266;2023-08-06T12:52:41;24.51;71.17
75387;DHT22;63966;47.914;22.266;2023-08-06T12:55:44;24.31;70.37
75387;DHT22;63966;47.914;22.266;2023-08-06T12:58:47;24.31;69.63
75387;DHT22;63966;47.914;22.266;2023-08-06T13:01:51;24.17;69.91
75387;DHT22;63966;47.914;22.266;2023-08-06T13:04:55;24.39;70.74
75387;DHT22;63966;47.914;22.266;2023-08-06T13:07:58;24.40;70.64
75387;DHT22;63966;47.914;22.266;2023-08-06T13:11:02;24.02;69.54
75387;DHT22;63966;47.914;22.266;2023-08-06T13:14:10;24.10;69.85
75387;DHT22;63966;47.914;22.266;2023-08-06T13:17:15;23.88;71.75
75387;DHT22;63966;47.914;22.266;2023-08-06T13:20:18;23.86;70.99
75387;DHT22;63966;47.914;22.266;2023-08-06T13:23:23;23.88;72.51
75387;DHT22;63966;47.914;22.266;2023-08-06T13:26:27;23.85;70.82
75387;DHT22;63966;47.914;22.266;2023-08-06T13:29:32;24.01;69.32
75387;DHT22;63966;47.914;22.266;2023-08-06T13:32:35;24.36;69.59
75387;DHT22;63966;47.914;22.266;2023-08-06T13:35:40;24.53;70.11
75387;DHT22;63966;47.914;22.266;2023-08-06T13:38:43;24.63;69.95
75387;DHT22;63966;47.914;22.266;2023-08-06T13:41:46;24.61;70.57
75387;DHT22;63966;47.914;22.266;2023-08-06T13:44:50;24.51;69.26
75387;DHT22;63966;47.914;22.266;2023-08-06T13:47:55;24.39;69.01
75387;DHT22;63966;47.914;22.266;2023-08-06T13:50:58;24.02;69.64
75387;DHT22;63966;47.914;22.266;2023-08-06T13:54:02;23.69;71.34
75387;DHT22;63966;47.914;22.266;2023-08-06T13:57:05;23.59;70.64
75387;DHT22;63966;47.914;22.266;2023-08-06T14:00:09;23.23;72.32
75387;DHT22;63966;47.914;22.266;2023-08-06T14:03:18;23.43;70.85
75387;DHT22;63966;47.914;22.266;2023-08-06T14:06:22;23.47;70.46
75387;DHT22;63966;47.914;22.266;2023-08-06T14:09:25;23.57;70.42
75387;DHT22;63966;47.914;22.266;2023-08-06T14:12:30;23.35;70.50
75387;DHT22;63966;47.914;22.266;2023-08-06T14:15:34;23.33;70.48
75387;DHT22;63966;47.914;22.266;2023-08-06T14:18:37;23.21;70.44
75387;DHT22;63966;47.914;22.266;2023-08-06T14:21:41;23.48;71.21
75387;DHT22;63966;47.914;22.266;2023-08-06T14:24:44;23.35;72.07
75387;DHT22;63966;47.914;22.266;2023-08-06T14:27:50;23.24;70.19
75387;DHT22;63966;47.914;22.266;2023-08-06T14:30:53;23.35;70.41
75387;DHT22;63966;47.914;22.266;2023-08-06T14:34:00;23.16;69.77
75387;DHT22;63966;47.914;22.266;2023-08-06T14:37:03;22.96;71.28
75387;DHT22;63966;47.914;22.266;2023-08-06T14:40:08;22.82;71.83
75387;DHT22;63966;47.914;22.266;2023-08-06T14:43:11;22.69;72.02
75387;DHT22;63966;47.914;22.266;2023-08-06T14:46:17;22.65;71.17
75387;DHT22;63966;47.914;22.266;2023-08-06T14:49:21;22.59;71.13
75387;DHT22;63966;47.914;22.266;2023-08-06T14:52:24;22.69;71.12
75387;DHT22;63966;47.914;22.266;2023-08-06T14:55:28;22.69;71.33
75387;DHT22;63966;47.914;22.266;2023-08-06T14:58:31;22.85;71.37
75387;DHT22;63966;47.914;22.266;2023-08-06T15:01:35;22.82;72.01
75387;DHT22;63966;47.914;22.266;2023-08-06T15:04:38;22.49;72.03
75387;DHT22;63966;47.914;22.266;2023-08-06T15:07:42;22.39;72.73
75387;DHT22;63966;47.914;22.266;2023-08-06T15:10:51;22.39;72.35
75387;DHT22;63966;47.914;22.266;2023-08-06T15:13:55;22.24;73.14
75387;DHT22;63966;47.914;22.266;2023-08-06T15:16:58;22.27;72.83
75387;DHT22;63966;47.914;22.266;2023-08-06T15:20:02;22.08;73.46
75387;DHT22;63966;47.914;22.266;2023-08-06T15:23:06;22.11;74.54
75387;DHT22;63966;47.914;22.266;2023-08-06T15:26:09;22.07;74.11
75387;DHT22;63966;47.914;22.266;2023-08-06T15:29:13;22.03;74.16
75387;DHT22;63966;47.914;22.266;2023-08-06T15:32:16;22.03;73.66
75387;DHT22;63966;47.914;22.266;2023-08-06T15:35:20;22.03;73.04
75387;DHT22;63966;47.914;22.266;2023-08-06T15:38:23;21.91;74.29
75387;DHT22;63966;47.914;22.266;2023-08-06T15:41:27;21.93;74.85
75387;DHT22;63966;47.914;22.266;2023-08-06T15:44:30;21.90;73.93
75387;DHT22;63966;47.914;22.266;2023-08-06T15:47:34;21.83;73.16
75387;DHT22;63966;47.914;22.266;2023-08-06T15:50:43;21.89;72.99
75387;DHT22;63966;47.914;22.266;2023-08-06T15:53:48;21.91;73.74
75387;DHT22;63966;47.914;22.266;2023-08-06T15:56:51;21.83;73.39
75387;DHT22;63966;47.914;22.266;2023-08-06T15:59:55;21.87;72.81
75387;DHT22;63966;47.914;22.266;2023-08-06T16:02:58;21.64;73.71
75387;DHT22;63966;47.914;22.266;2023-08-06T16:06:02;21.69;73.55
75387;DHT22;63966;47.914;22.266;2023-08-06T16:09:10;21.62;73.81
75387;DHT22;63966;47.914;22.266;2023-08-06T16:12:14;21.57;74.50
75387;DHT22;63966;47.914;22.266;2023-08-06T16:15:21;21.52;75.34
75387;DHT22;63966;47.914;22.266;2023-08-06T16:18:24;21.53;73.48
75387;DHT22;63966;47.914;22.266;2023-08-06T16:21:28;21.46;73.71
75387;DHT22;63966;47.914;22.266;2023-08-06T16:24:31;21.32;73.53
75387;DHT22;63966;47.914;22.266;2023-08-06T16:27:35;21.21;73.51
75387;DHT22;63966;47.914;22.266;2023-08-06T16:30:45;20.99;74.07
75387;DHT22;63966;47.914;22.266;2023-08-06T16:33:49;20.94;74.31
75387;DHT22;63966;47.914;22.266;2023-08-06T16:36:53;20.83;74.64
75387;DHT22;63966;47.914;22.266;2023-08-06T16:39:57;20.84;74.63
75387;DHT22;63966;47.914;22.266;2023-08-06T16:43:01;20.81;74.57
75387;DHT22;63966;47.914;22.266;2023-08-06T16:46:04;20.90;74.40
75387;DHT22;63966;47.914;22.266;2023-08-06T16:49:08;20.95;74.83
75387;DHT22;63966;47.914;22.266;2023-08-06T16:52:11;20.85;76.19
75387;DHT22;63966;47.914;22.266;2023-08-06T16:55:15;20.68;74.69
75387;DHT22;63966;47.914;22.266;2023-08-06T16:58:19;20.61;75.34
75387;DHT22;63966;47.914;22.266;2023-08-06T17:01:22;20.66;75.35
75387;DHT22;63966;47.914;22.266;2023-08-06T17:04:26;20.59;75.83
75387;DHT22;63966;47.914;22.266;2023-08-06T17:07:29;20.44;75.63
75387;DHT22;63966;47.914;22.266;2023-08-06T17:10:33;20.40;75.82
75387;DHT22;63966;47.914;22.266;2023-08-06T17:13:37;20.40;74.89
75387;DHT22;63966;47.914;22.266;2023-08-06T17:16:40;20.33;75.06
75387;DHT22;63966;47.914;22.266;2023-08-06T17:19:44;20.13;76.66
75387;DHT22;63966;47.914;22.266;2023-08-06T17:22:47;20.02;75.82
75387;DHT22;63966;47.914;22.266;2023-08-06T17:25:52;19.96;75.79
75387;DHT22;63966;47.914;22.266;2023-08-06T17:28:55;19.86;75.36
75387;DHT22;63966;47.914;22.266;2023-08-06T17:31:59;19.78;76.75
75387;DHT22;63966;47.914;22.266;2023-08-06T17:35:02;19.70;76.45
75387;DHT22;63966;47.914;22.266;2023-08-06T17:38:07;19.65;76.50
75387;DHT22;63966;47.914;22.266;2023-08-06T17:41:10;19.61;76.68
75387;DHT22;63966;47.914;22.266;2023-08-06T17:44:14;19.58;77.30
75387;DHT22;63966;47.914;22.266;2023-08-06T17:47:18;19.65;76.94
75387;DHT22;63966;47.914;22.266;2023-08-06T17:50:38;19.49;77.57
75387;DHT22;63966;47.914;22.266;2023-08-06T17:53:41;19.44;77.53
75387;DHT22;63966;47.914;22.266;2023-08-06T17:56:45;19.43;78.04
75387;DHT22;63966;47.914;22.266;2023-08-06T17:59:48;19.36;78.12
75387;DHT22;63966;47.914;22.266;2023-08-06T18:02:52;19.34;77.90
75387;DHT22;63966;47.914;22.266;2023-08-06T18:05:57;19.38;78.49
75387;DHT22;63966;47.914;22.266;2023-08-06T18:09:01;19.24;78.86
75387;DHT22;63966;47.914;22.266;2023-08-06T18:12:05;19.20;78.96
75387;DHT22;63966;47.914;22.266;2023-08-06T18:15:12;19.27;79.27
75387;DHT22;63966;47.914;22.266;2023-08-06T18:18:15;19.22;78.80
75387;DHT22;63966;47.914;22.266;2023-08-06T18:21:19;19.15;79.25
75387;DHT22;63966;47.914;22.266;2023-08-06T18:24:24;19.06;79.50
75387;DHT22;63966;47.914;22.266;2023-08-06T18:27:27;19.07;79.79
75387;DHT22;63966;47.914;22.266;2023-08-06T18:30:31;19.10;79.58
75387;DHT22;63966;47.914;22.266;2023-08-06T18:33:38;19.12;79.88
75387;DHT22;63966;47.914;22.266;2023-08-06T18:36:42;19.07;79.42
75387;DHT22;63966;47.914;22.266;2023-08-06T18:39:48;19.07;79.49
75387;DHT22;63966;47.914;22.266;2023-08-06T18:42:52;19.07;79.20
75387;DHT22;63966;47.914;22.266;2023-08-06T18:45:56;18.99;79.71
75387;DHT22;63966;47.914;22.266;2023-08-06T18:49:00;18.94;80.23
75387;DHT22;63966;47.914;22.266;2023-08-06T18:52:04;18.91;79.91
75387;DHT22;63966;47.914;22.266;2023-08-06T18:55:09;18.84;80.42
75387;DHT22;63966;47.914;22.266;2023-08-06T18:58:13;18.94;80.43
75387;DHT22;63966;47.914;22.266;2023-08-06T19:01:16;18.88;80.34
75387;DHT22;63966;47.914;22.266;2023-08-06T19:04:20;18.85;80.29
75387;DHT22;63966;47.914;22.266;2023-08-06T19:07:24;18.92;80.30
75387;DHT22;63966;47.914;22.266;2023-08-06T19:10:27;18.76;80.69